Sunday, April 20, 2014
00:56 UTC
  |  Log In   |  Register Free
Airport Search:

Bishop International Airport
(KFNT)

FAA data valid effective April 3, 2014 until May 29, 2014 (unless otherwise noted).

 
 
 
 
 
 
 
 
 
 
 
 
 
 

Current Aviation Weather for Bishop International Airport (KFNT)

The most recent METAR observation for KFNT was updated at: 2353 UTC
METAR Summary (Translated METAR)
KFNT
192353Z 11007KT 10SM CLR 11/M03 A3032 RMK AO2 SLP273 T01111028 10150 20111 58010
KRNP
(17.4 nm NW from KFNT)
192355Z AUTO 11006KT 10SM CLR 12/M03 A3031 RMK AO2 T01211035 10144 20113
TAF Summary (Translated TAF)
KFNT
191721Z 1918/2018 10009KT P6SM SCT250 FM200000 12005KT P6SM SCT250 FM201500 20008KT P6SM BKN250
KPTK
(23 nm SE from KFNT)
191721Z 1918/2018 08011KT P6SM SKC FM200000 11005KT P6SM SCT250 FM201500 20008KT P6SM BKN250
  Airport Weather Conditions for KFNT

 Current Weather at FNT
52° F
Fair
East winds at 8.1 mph
FNT NOAA Radar

Pressure: 30.32 in
Humidity: 38%
Wind: East at 8.1 MPH (7 KT)
Dew Point: 27.0°F
Visibility: 10.00 mi


Airport Weather Forecast for KFNT

Translated METAR and TAF for KFNT
Translated METAR for KFNT (0056 UTC 20 April 2014)
found at http://aviationweather.gov/adds/metars/
 
METAR text: KFNT 200053Z 12005KT 10SM CLR 08/M04 A3033 RMK AO2 SLP277 T00831039
Conditions at: KFNT (FLINT , MI, US) observed 0053 UTC 20 April 2014
Temperature: 8.3°C (47°F)
Dewpoint: -3.9°C (25°F) [RH = 42%]
Pressure (altimeter): 30.33 inches Hg (1027.2 mb)
[Sea-level pressure: 1027.7 mb]
Winds: from the ESE (120 degrees) at 6 MPH (5 knots; 2.6 m/s)
Visibility: 10 or more miles (16+ km)
Ceiling: at least 12,000 feet AGL
Clouds: sky clear below 12,000 feet AGL
Weather: no significant weather observed at this time
Translated TAF for KFNT
Forecast for: KFNT (FLINT , MI, US)
TAF Text: KFNT 192320Z 2000/2024 12005KT P6SM SCT250
Forecast period: 0000 to 1500 UTC 20 April 2014
Forecast type: FROM: standard forecast or significant change
Winds: from the ESE (120 degrees) at 6 MPH (5 knots; 2.6 m/s)
Visibility: 6 or more miles (10+ km)
Clouds: scattered clouds at 25000 feet AGL
Weather: no significant weather forecast for this period
TAF Text: FM201500 20008KT P6SM BKN250
Forecast period: 1500 UTC 20 April 2014 to 0000 UTC 21 April 2014
Forecast type: FROM: standard forecast or significant change
Winds: from the SSW (200 degrees) at 9 MPH (8 knots; 4.2 m/s)
Visibility: 6 or more miles (10+ km)
Ceiling: 25000 feet AGL
Clouds: broken clouds at 25000 feet AGL
Weather: no significant weather forecast for this period

Find All Airport Services Find A Hotel Find A Rental Car Find A Golf Course Find A Restaurant $100 Hamburger



FBO's on the Field
FBO Company Facility Photos Services Transportation Aviation Fuel Prices: Prices include tax
Catering Weather Repair Courtesy Rental Type 100LL JetA JetA+ MOGAS 8087
 
Avflight Flint

This FBO has not yet been rated
FS:Avfuel
Last Updated: Apr-14
Login to update fuel prices
SS:
Contact Avflight FlintMore FBO Information
 
Add another FBO Facility Photos Catering Weather Repair Courtesy Rental Type 100LL JetA JetA+ MOGAS 8087
Services Transportation Aviation Fuel Prices: Prices include tax


GlobalAir.com Airport Resource Center model-print
model-print
model-print
model-print